Home   Weather   Germany   Mülheim / Ruhr   Past weeks
Flag for Germany

Past Weather in Mülheim / Ruhr, North Rhine-Westphalia, Germany — Yesterday and Last 2 Weeks

Currently: 77 °F. Passing clouds. (Weather station: Duesseldorf, Germany). See more current weather

Past Weather in Mülheim / Ruhr — Graph

°F

Mülheim / Ruhr Temperature Yesterday

Maximum temperature yesterday: 77 °F (at 1:50 pm)
Minimum temperature yesterday: 55 °F (at 5:20 am)
Average temperature yesterday: 68 °F

High & Low Weather Summary for the Past Weeks

 TemperatureHumidityPressure
High81 °F (Jul 18, 4:20 pm)100% (Jul 9, 2:20 am)30.27 "Hg (Jul 9, 2:20 am)
Low52 °F (Jul 20, 4:20 am)42% (Jul 23, 4:50 pm)29.71 "Hg (Jul 14, 6:50 pm)
Average66 °F78%30.06 "Hg
* Reported Jul 8 4:20 pm — Jul 23 4:50 pm, Mülheim / Ruhr. Weather by CustomWeather, © 2021

Note: Actual official high and low records may vary slightly from our data, if they occured in-between our weather recording intervals... More about our weather records

Mülheim / Ruhr Weather History for the Previous 24 Hours

Scroll right to see more
 ConditionsComfort  
Time TempWeatherWind HumidityBarometerVisibility
4:50 pm
Fri, Jul 23
77 °FPassing clouds.5 mph42%29.98 "HgN/A
4:20 pm77 °FPassing clouds.5 mph44%29.98 "HgN/A
3:50 pm77 °FPassing clouds.5 mph44%29.98 "HgN/A
3:20 pm75 °FPassing clouds.6 mph50%29.98 "HgN/A
2:50 pm75 °FPassing clouds.9 mph50%30.01 "HgN/A
2:20 pm75 °FPassing clouds.8 mph50%30.01 "HgN/A
1:50 pm73 °FPassing clouds.8 mph53%30.04 "HgN/A
1:20 pm73 °FPassing clouds.7 mph53%30.04 "HgN/A
12:50 pm72 °FPassing clouds.7 mph57%30.04 "HgN/A
12:20 pm72 °FPassing clouds.6 mph57%30.07 "HgN/A
11:50 am70 °FPassing clouds.6 mph60%30.07 "HgN/A
11:20 am70 °FPassing clouds.6 mph60%30.07 "HgN/A
10:50 am68 °FPassing clouds.7 mph64%30.07 "HgN/A
10:20 am68 °FPassing clouds.7 mph64%30.09 "HgN/A
9:50 am66 °FPassing clouds.7 mph68%30.09 "HgN/A
9:20 am64 °FSunny.8 mph73%30.09 "Hg10 mi
8:50 am63 °FPassing clouds.7 mph77%30.09 "HgN/A
7:50 am59 °FPassing clouds.3 mph82%30.09 "HgN/A
7:20 am57 °FSunny.2 mph88%30.09 "Hg10 mi
6:50 am57 °FSunny.3 mph88%30.09 "Hg10 mi
6:20 am55 °FSunny.3 mph88%30.09 "Hg10 mi
5:50 am55 °FSunny.3 mph88%30.09 "Hg10 mi
5:20 am55 °FClear.3 mph88%30.09 "Hg10 mi
4:50 am55 °FClear.3 mph88%30.09 "Hg10 mi
4:20 am57 °FClear.3 mph82%30.09 "Hg10 mi
3:50 am57 °FClear.5 mph88%30.09 "Hg10 mi
3:20 am57 °FClear.5 mph88%30.09 "Hg10 mi
2:50 am59 °FClear.6 mph82%30.12 "Hg10 mi
2:20 am59 °FClear.6 mph82%30.12 "Hg10 mi
1:50 am61 °FClear.6 mph77%30.12 "Hg10 mi
1:20 am61 °FClear.6 mph83%30.12 "Hg10 mi
12:50 am59 °FClear.2 mph88%30.12 "Hg10 mi
12:20 am61 °FClear.3 mph83%30.12 "Hg10 mi
11:50 pm
Thu, Jul 22
63 °FClear.6 mph77%30.09 "Hg10 mi
11:20 pm64 °FClear.7 mph73%30.09 "Hg10 mi
10:50 pm64 °FClear.6 mph78%30.12 "Hg10 mi
10:20 pm66 °FClear.5 mph73%30.12 "Hg10 mi
9:50 pm68 °FClear.6 mph64%30.09 "Hg10 mi
9:20 pm70 °FSunny.6 mph64%30.09 "Hg10 mi
8:50 pm72 °FSunny.6 mph61%30.09 "Hg10 mi
8:20 pm73 °FPassing clouds.7 mph57%30.09 "HgN/A
7:50 pm73 °FPassing clouds.8 mph57%30.09 "HgN/A
7:20 pm75 °FPassing clouds.8 mph54%30.09 "HgN/A
6:50 pm75 °FPassing clouds.8 mph54%30.09 "HgN/A
6:20 pm75 °FPassing clouds.9 mph54%30.09 "HgN/A
5:50 pm77 °FPassing clouds.10 mph51%30.12 "HgN/A
5:20 pm77 °FPassing clouds.10 mph51%30.12 "HgN/A
Weather by CustomWeather, © 2021

See weather overview